sensor_id;sensor_type;location;lat;lon;timestamp;pressure;altitude;pressure_sealevel;temperature;humidity
5691;BME280;2870;42.680;23.364;2023-03-16T00:00:07;94251.28;;;4.29;95.33
5691;BME280;2870;42.680;23.364;2023-03-16T00:02:38;94246.94;;;3.86;96.91
5691;BME280;2870;42.680;23.364;2023-03-16T00:05:06;94249.16;;;4.01;97.88
5691;BME280;2870;42.680;23.364;2023-03-16T00:07:33;94246.84;;;3.79;96.83
5691;BME280;2870;42.680;23.364;2023-03-16T00:10:00;94242.91;;;4.21;96.29
5691;BME280;2870;42.680;23.364;2023-03-16T00:12:29;94251.53;;;4.31;95.82
5691;BME280;2870;42.680;23.364;2023-03-16T00:14:59;94256.47;;;4.46;96.49
5691;BME280;2870;42.680;23.364;2023-03-16T00:17:27;94260.31;;;3.61;96.01
5691;BME280;2870;42.680;23.364;2023-03-16T00:19:55;94259.06;;;4.10;97.79
5691;BME280;2870;42.680;23.364;2023-03-16T00:22:23;94261.81;;;3.62;96.69
5691;BME280;2870;42.680;23.364;2023-03-16T00:24:52;94267.16;;;4.08;97.30
5691;BME280;2870;42.680;23.364;2023-03-16T00:27:19;94261.47;;;4.13;96.45
5691;BME280;2870;42.680;23.364;2023-03-16T00:29:50;94265.91;;;4.30;95.08
5691;BME280;2870;42.680;23.364;2023-03-16T00:32:21;94267.66;;;4.19;95.40
5691;BME280;2870;42.680;23.364;2023-03-16T00:34:48;94266.13;;;3.97;96.88
5691;BME280;2870;42.680;23.364;2023-03-16T00:37:16;94266.28;;;3.65;97.29
5691;BME280;2870;42.680;23.364;2023-03-16T00:39:45;94273.22;;;4.19;97.13
5691;BME280;2870;42.680;23.364;2023-03-16T00:42:13;94282.69;;;4.37;95.28
5691;BME280;2870;42.680;23.364;2023-03-16T00:44:40;94279.47;;;3.99;94.86
5691;BME280;2870;42.680;23.364;2023-03-16T00:47:10;94278.13;;;4.13;97.05
5691;BME280;2870;42.680;23.364;2023-03-16T00:49:39;94282.69;;;3.77;96.84
5691;BME280;2870;42.680;23.364;2023-03-16T00:52:08;94275.88;;;3.78;97.63
5691;BME280;2870;42.680;23.364;2023-03-16T00:54:39;94287.94;;;3.80;97.45
5691;BME280;2870;42.680;23.364;2023-03-16T00:57:07;94279.84;;;4.16;96.45
5691;BME280;2870;42.680;23.364;2023-03-16T00:59:34;94281.63;;;3.80;95.75
5691;BME280;2870;42.680;23.364;2023-03-16T01:02:02;94285.69;;;3.79;97.96
5691;BME280;2870;42.680;23.364;2023-03-16T01:04:31;94293.59;;;3.35;98.74
5691;BME280;2870;42.680;23.364;2023-03-16T01:07:00;94283.97;;;3.62;98.40
5691;BME280;2870;42.680;23.364;2023-03-16T01:09:27;94284.38;;;3.80;97.00
5691;BME280;2870;42.680;23.364;2023-03-16T01:11:54;94291.22;;;3.79;98.15
5691;BME280;2870;42.680;23.364;2023-03-16T01:14:21;94293.91;;;3.44;98.55
5691;BME280;2870;42.680;23.364;2023-03-16T01:16:48;94273.34;;;3.53;98.92
5691;BME280;2870;42.680;23.364;2023-03-16T01:19:17;94291.13;;;3.18;99.37
5691;BME280;2870;42.680;23.364;2023-03-16T01:21:45;94283.16;;;3.41;98.77
5691;BME280;2870;42.680;23.364;2023-03-16T01:24:12;94291.47;;;3.54;100.00
5691;BME280;2870;42.680;23.364;2023-03-16T01:26:38;94290.06;;;3.34;100.00
5691;BME280;2870;42.680;23.364;2023-03-16T01:29:05;94289.53;;;3.49;100.00
5691;BME280;2870;42.680;23.364;2023-03-16T01:31:32;94281.63;;;3.40;99.56
5691;BME280;2870;42.680;23.364;2023-03-16T01:33:59;94298.16;;;3.72;99.66
5691;BME280;2870;42.680;23.364;2023-03-16T01:36:28;94292.09;;;3.87;98.49
5691;BME280;2870;42.680;23.364;2023-03-16T01:38:57;94289.00;;;3.77;96.21
5691;BME280;2870;42.680;23.364;2023-03-16T01:41:24;94278.72;;;3.98;95.51
5691;BME280;2870;42.680;23.364;2023-03-16T01:43:52;94289.81;;;3.85;95.62
5691;BME280;2870;42.680;23.364;2023-03-16T01:46:24;94299.13;;;3.22;95.82
5691;BME280;2870;42.680;23.364;2023-03-16T01:49:02;94313.41;;;3.12;96.25
5691;BME280;2870;42.680;23.364;2023-03-16T01:51:35;94305.53;;;3.43;97.00
5691;BME280;2870;42.680;23.364;2023-03-16T01:54:07;94302.34;;;3.52;95.20
5691;BME280;2870;42.680;23.364;2023-03-16T01:56:37;94302.13;;;3.63;95.79
5691;BME280;2870;42.680;23.364;2023-03-16T01:59:09;94311.50;;;3.60;94.70
5691;BME280;2870;42.680;23.364;2023-03-16T02:01:37;94309.47;;;3.34;94.66
5691;BME280;2870;42.680;23.364;2023-03-16T02:04:13;94324.44;;;3.58;93.41
5691;BME280;2870;42.680;23.364;2023-03-16T02:06:43;94323.41;;;3.29;93.12
5691;BME280;2870;42.680;23.364;2023-03-16T02:09:12;94326.19;;;3.15;95.01
5691;BME280;2870;42.680;23.364;2023-03-16T02:11:39;94316.94;;;3.26;96.49
5691;BME280;2870;42.680;23.364;2023-03-16T02:14:09;94333.25;;;3.43;95.49
5691;BME280;2870;42.680;23.364;2023-03-16T02:16:36;94320.34;;;3.85;94.94
5691;BME280;2870;42.680;23.364;2023-03-16T02:19:08;94331.97;;;3.44;94.99
5691;BME280;2870;42.680;23.364;2023-03-16T02:21:44;94338.06;;;3.29;95.85
5691;BME280;2870;42.680;23.364;2023-03-16T02:24:14;94337.53;;;3.57;95.09
5691;BME280;2870;42.680;23.364;2023-03-16T02:26:44;94356.88;;;3.17;95.88
5691;BME280;2870;42.680;23.364;2023-03-16T02:29:22;94344.75;;;3.21;97.49
5691;BME280;2870;42.680;23.364;2023-03-16T02:31:57;94349.53;;;3.20;98.51
5691;BME280;2870;42.680;23.364;2023-03-16T02:34:24;94349.16;;;3.42;97.06
5691;BME280;2870;42.680;23.364;2023-03-16T02:36:52;94359.41;;;3.61;96.86
5691;BME280;2870;42.680;23.364;2023-03-16T02:39:20;94345.56;;;3.02;97.14
5691;BME280;2870;42.680;23.364;2023-03-16T02:41:47;94354.16;;;3.57;97.63
5691;BME280;2870;42.680;23.364;2023-03-16T02:44:16;94363.75;;;3.30;99.13
5691;BME280;2870;42.680;23.364;2023-03-16T02:46:45;94349.88;;;3.30;98.69
5691;BME280;2870;42.680;23.364;2023-03-16T02:49:18;94355.09;;;3.20;98.92
5691;BME280;2870;42.680;23.364;2023-03-16T02:51:47;94361.78;;;2.79;100.00
5691;BME280;2870;42.680;23.364;2023-03-16T02:54:14;94363.94;;;3.18;100.00
5691;BME280;2870;42.680;23.364;2023-03-16T02:56:40;94361.38;;;2.56;100.00
5691;BME280;2870;42.680;23.364;2023-03-16T02:59:07;94369.69;;;2.88;100.00
5691;BME280;2870;42.680;23.364;2023-03-16T03:01:36;94367.09;;;2.77;100.00
5691;BME280;2870;42.680;23.364;2023-03-16T03:04:04;94359.69;;;2.85;100.00
5691;BME280;2870;42.680;23.364;2023-03-16T03:06:32;94367.25;;;2.66;100.00
5691;BME280;2870;42.680;23.364;2023-03-16T03:08:59;94369.66;;;3.07;100.00
5691;BME280;2870;42.680;23.364;2023-03-16T03:11:27;94372.38;;;2.94;100.00
5691;BME280;2870;42.680;23.364;2023-03-16T03:13:55;94364.50;;;2.66;100.00
5691;BME280;2870;42.680;23.364;2023-03-16T03:16:22;94374.00;;;2.71;100.00
5691;BME280;2870;42.680;23.364;2023-03-16T03:18:49;94380.97;;;2.58;100.00
5691;BME280;2870;42.680;23.364;2023-03-16T03:21:17;94383.59;;;3.02;100.00
5691;BME280;2870;42.680;23.364;2023-03-16T03:23:46;94383.69;;;2.96;100.00
5691;BME280;2870;42.680;23.364;2023-03-16T03:26:13;94392.47;;;2.81;100.00
5691;BME280;2870;42.680;23.364;2023-03-16T03:28:40;94383.69;;;2.96;100.00
5691;BME280;2870;42.680;23.364;2023-03-16T03:31:07;94383.44;;;2.43;100.00
5691;BME280;2870;42.680;23.364;2023-03-16T03:33:38;94391.94;;;2.83;100.00
5691;BME280;2870;42.680;23.364;2023-03-16T03:36:05;94391.66;;;2.49;100.00
5691;BME280;2870;42.680;23.364;2023-03-16T03:38:33;94404.47;;;2.52;100.00
5691;BME280;2870;42.680;23.364;2023-03-16T03:41:01;94390.25;;;2.42;100.00
5691;BME280;2870;42.680;23.364;2023-03-16T03:43:28;94400.50;;;2.47;100.00
5691;BME280;2870;42.680;23.364;2023-03-16T03:45:55;94398.34;;;2.40;100.00
5691;BME280;2870;42.680;23.364;2023-03-16T03:48:23;94420.03;;;2.55;100.00
5691;BME280;2870;42.680;23.364;2023-03-16T03:50:50;94410.81;;;2.65;100.00
5691;BME280;2870;42.680;23.364;2023-03-16T03:53:18;94414.84;;;2.83;100.00
5691;BME280;2870;42.680;23.364;2023-03-16T03:55:46;94418.06;;;2.31;100.00
5691;BME280;2870;42.680;23.364;2023-03-16T03:58:15;94424.47;;;2.45;100.00
5691;BME280;2870;42.680;23.364;2023-03-16T04:00:42;94426.09;;;2.53;100.00
5691;BME280;2870;42.680;23.364;2023-03-16T04:03:09;94416.06;;;2.50;100.00
5691;BME280;2870;42.680;23.364;2023-03-16T04:05:35;94428.31;;;2.55;100.00
5691;BME280;2870;42.680;23.364;2023-03-16T04:08:03;94434.84;;;2.57;100.00
5691;BME280;2870;42.680;23.364;2023-03-16T04:10:30;94430.34;;;2.35;100.00
5691;BME280;2870;42.680;23.364;2023-03-16T04:12:57;94425.41;;;2.47;100.00
5691;BME280;2870;42.680;23.364;2023-03-16T04:15:26;94422.28;;;2.56;100.00
5691;BME280;2870;42.680;23.364;2023-03-16T04:17:53;94430.88;;;2.72;100.00
5691;BME280;2870;42.680;23.364;2023-03-16T04:20:20;94421.97;;;2.22;100.00
5691;BME280;2870;42.680;23.364;2023-03-16T04:22:48;94421.53;;;2.56;100.00
5691;BME280;2870;42.680;23.364;2023-03-16T04:25:23;94434.19;;;2.51;100.00
5691;BME280;2870;42.680;23.364;2023-03-16T04:27:51;94442.47;;;2.51;100.00
5691;BME280;2870;42.680;23.364;2023-03-16T04:30:18;94442.88;;;2.61;100.00
5691;BME280;2870;42.680;23.364;2023-03-16T04:32:46;94446.13;;;2.97;99.91
5691;BME280;2870;42.680;23.364;2023-03-16T04:35:13;94451.16;;;2.80;98.81
5691;BME280;2870;42.680;23.364;2023-03-16T04:37:41;94459.69;;;2.44;100.00
5691;BME280;2870;42.680;23.364;2023-03-16T04:40:09;94453.41;;;2.62;100.00
5691;BME280;2870;42.680;23.364;2023-03-16T04:42:41;94461.00;;;2.37;100.00
5691;BME280;2870;42.680;23.364;2023-03-16T04:45:09;94459.22;;;2.40;100.00
5691;BME280;2870;42.680;23.364;2023-03-16T04:47:36;94465.84;;;2.12;100.00
5691;BME280;2870;42.680;23.364;2023-03-16T04:50:05;94474.78;;;2.43;100.00
5691;BME280;2870;42.680;23.364;2023-03-16T04:52:32;94479.50;;;2.48;100.00
5691;BME280;2870;42.680;23.364;2023-03-16T04:54:59;94473.53;;;2.44;100.00
5691;BME280;2870;42.680;23.364;2023-03-16T04:57:26;94478.97;;;2.31;100.00
5691;BME280;2870;42.680;23.364;2023-03-16T04:59:53;94485.16;;;2.37;100.00
5691;BME280;2870;42.680;23.364;2023-03-16T05:02:19;94483.78;;;2.87;100.00
5691;BME280;2870;42.680;23.364;2023-03-16T05:04:47;94493.38;;;2.86;99.35
5691;BME280;2870;42.680;23.364;2023-03-16T05:07:15;94487.31;;;2.50;99.24
5691;BME280;2870;42.680;23.364;2023-03-16T05:09:42;94500.09;;;2.72;98.08
5691;BME280;2870;42.680;23.364;2023-03-16T05:12:09;94493.81;;;2.52;100.00
5691;BME280;2870;42.680;23.364;2023-03-16T05:14:36;94501.63;;;2.73;99.00
5691;BME280;2870;42.680;23.364;2023-03-16T05:17:03;94502.13;;;2.90;98.31
5691;BME280;2870;42.680;23.364;2023-03-16T05:19:30;94499.50;;;2.98;98.33
5691;BME280;2870;42.680;23.364;2023-03-16T05:21:57;94502.56;;;2.94;96.38
5691;BME280;2870;42.680;23.364;2023-03-16T05:24:25;94512.84;;;2.80;98.05
5691;BME280;2870;42.680;23.364;2023-03-16T05:26:52;94511.34;;;2.98;97.02
5691;BME280;2870;42.680;23.364;2023-03-16T05:29:18;94516.53;;;2.45;96.96
5691;BME280;2870;42.680;23.364;2023-03-16T05:31:45;94518.53;;;2.88;97.40
5691;BME280;2870;42.680;23.364;2023-03-16T05:34:13;94528.84;;;2.69;96.80
5691;BME280;2870;42.680;23.364;2023-03-16T05:36:40;94521.69;;;2.79;97.04
5691;BME280;2870;42.680;23.364;2023-03-16T05:39:06;94523.31;;;2.69;98.32
5691;BME280;2870;42.680;23.364;2023-03-16T05:41:35;94527.03;;;2.71;98.06
5691;BME280;2870;42.680;23.364;2023-03-16T05:44:02;94537.34;;;2.95;97.78
5691;BME280;2870;42.680;23.364;2023-03-16T05:46:29;94534.66;;;2.46;97.69
5691;BME280;2870;42.680;23.364;2023-03-16T05:48:56;94540.03;;;2.38;97.01
5691;BME280;2870;42.680;23.364;2023-03-16T05:51:23;94527.16;;;2.41;98.68
5691;BME280;2870;42.680;23.364;2023-03-16T05:53:51;94536.13;;;2.47;98.05
5691;BME280;2870;42.680;23.364;2023-03-16T05:56:22;94538.09;;;2.52;98.69
5691;BME280;2870;42.680;23.364;2023-03-16T05:58:51;94540.69;;;2.20;98.77
5691;BME280;2870;42.680;23.364;2023-03-16T06:01:19;94544.00;;;2.19;100.00
5691;BME280;2870;42.680;23.364;2023-03-16T06:03:46;94556.16;;;2.78;98.66
5691;BME280;2870;42.680;23.364;2023-03-16T06:06:14;94553.44;;;2.97;98.27
5691;BME280;2870;42.680;23.364;2023-03-16T06:08:41;94559.63;;;2.41;97.97
5691;BME280;2870;42.680;23.364;2023-03-16T06:11:08;94561.91;;;2.36;99.25
5691;BME280;2870;42.680;23.364;2023-03-16T06:13:36;94560.25;;;2.52;98.50
5691;BME280;2870;42.680;23.364;2023-03-16T06:16:05;94563.78;;;2.28;99.23
5691;BME280;2870;42.680;23.364;2023-03-16T06:18:32;94574.38;;;2.24;100.00
5691;BME280;2870;42.680;23.364;2023-03-16T06:20:59;94574.25;;;2.11;100.00
5691;BME280;2870;42.680;23.364;2023-03-16T06:23:26;94581.44;;;2.50;100.00
5691;BME280;2870;42.680;23.364;2023-03-16T06:25:53;94584.28;;;2.63;99.52
5691;BME280;2870;42.680;23.364;2023-03-16T06:28:21;94579.84;;;2.54;98.94
5691;BME280;2870;42.680;23.364;2023-03-16T06:30:47;94588.75;;;2.47;99.16
5691;BME280;2870;42.680;23.364;2023-03-16T06:33:16;94591.66;;;2.79;100.00
5691;BME280;2870;42.680;23.364;2023-03-16T06:35:43;94595.06;;;2.91;97.03
5691;BME280;2870;42.680;23.364;2023-03-16T06:38:12;94597.91;;;3.23;98.31
5691;BME280;2870;42.680;23.364;2023-03-16T06:40:39;94605.66;;;2.87;95.70
5691;BME280;2870;42.680;23.364;2023-03-16T06:43:06;94606.16;;;3.29;98.51
5691;BME280;2870;42.680;23.364;2023-03-16T06:45:33;94606.34;;;2.93;95.07
5691;BME280;2870;42.680;23.364;2023-03-16T06:48:00;94610.34;;;3.16;95.05
5691;BME280;2870;42.680;23.364;2023-03-16T06:50:28;94607.94;;;3.07;95.97
5691;BME280;2870;42.680;23.364;2023-03-16T06:52:55;94614.38;;;3.15;95.53
5691;BME280;2870;42.680;23.364;2023-03-16T06:55:22;94623.69;;;3.37;95.11
5691;BME280;2870;42.680;23.364;2023-03-16T06:57:49;94626.63;;;3.26;94.71
5691;BME280;2870;42.680;23.364;2023-03-16T07:00:16;94631.84;;;3.10;94.49
5691;BME280;2870;42.680;23.364;2023-03-16T07:02:43;94613.13;;;2.73;93.86
5691;BME280;2870;42.680;23.364;2023-03-16T07:05:10;94628.38;;;3.23;95.15
5691;BME280;2870;42.680;23.364;2023-03-16T07:07:40;94635.16;;;3.28;93.91
5691;BME280;2870;42.680;23.364;2023-03-16T07:10:09;94645.47;;;3.08;93.94
5691;BME280;2870;42.680;23.364;2023-03-16T07:12:36;94639.31;;;2.72;93.93
5691;BME280;2870;42.680;23.364;2023-03-16T07:15:04;94652.22;;;2.88;96.20
5691;BME280;2870;42.680;23.364;2023-03-16T07:17:31;94643.22;;;2.82;95.75
5691;BME280;2870;42.680;23.364;2023-03-16T07:19:58;94650.06;;;3.25;96.42
5691;BME280;2870;42.680;23.364;2023-03-16T07:22:29;94654.78;;;2.86;96.18
5691;BME280;2870;42.680;23.364;2023-03-16T07:24:57;94660.66;;;3.02;97.40
5691;BME280;2870;42.680;23.364;2023-03-16T07:27:24;94659.44;;;2.97;96.12
5691;BME280;2870;42.680;23.364;2023-03-16T07:29:51;94662.84;;;3.28;96.01
5691;BME280;2870;42.680;23.364;2023-03-16T07:32:18;94663.44;;;3.02;94.69
5691;BME280;2870;42.680;23.364;2023-03-16T07:34:45;94666.94;;;2.78;95.41
5691;BME280;2870;42.680;23.364;2023-03-16T07:37:12;94668.28;;;2.71;97.04
5691;BME280;2870;42.680;23.364;2023-03-16T07:39:38;94677.44;;;3.09;96.19
5691;BME280;2870;42.680;23.364;2023-03-16T07:42:08;94672.91;;;2.63;97.95
5691;BME280;2870;42.680;23.364;2023-03-16T07:44:34;94673.25;;;2.78;97.13
5691;BME280;2870;42.680;23.364;2023-03-16T07:47:01;94681.16;;;2.93;96.55
5691;BME280;2870;42.680;23.364;2023-03-16T07:49:28;94677.47;;;3.28;96.41
5691;BME280;2870;42.680;23.364;2023-03-16T07:51:55;94675.31;;;2.97;95.64
5691;BME280;2870;42.680;23.364;2023-03-16T07:54:22;94684.41;;;2.73;95.13
5691;BME280;2870;42.680;23.364;2023-03-16T07:56:49;94679.41;;;3.33;93.37
5691;BME280;2870;42.680;23.364;2023-03-16T07:59:18;94681.38;;;2.71;93.92
5691;BME280;2870;42.680;23.364;2023-03-16T08:01:45;94683.94;;;3.12;94.32
5691;BME280;2870;42.680;23.364;2023-03-16T08:04:13;94685.75;;;3.71;91.92
5691;BME280;2870;42.680;23.364;2023-03-16T08:06:40;94684.28;;;2.84;91.53
5691;BME280;2870;42.680;23.364;2023-03-16T08:09:07;94692.41;;;3.01;92.59
5691;BME280;2870;42.680;23.364;2023-03-16T08:11:34;94687.75;;;2.90;92.88
5691;BME280;2870;42.680;23.364;2023-03-16T08:14:01;94692.63;;;3.84;91.79
5691;BME280;2870;42.680;23.364;2023-03-16T08:16:30;94697.16;;;3.87;89.80
5691;BME280;2870;42.680;23.364;2023-03-16T08:18:57;94698.78;;;4.14;88.54
5691;BME280;2870;42.680;23.364;2023-03-16T08:21:25;94701.00;;;3.97;90.21
5691;BME280;2870;42.680;23.364;2023-03-16T08:23:52;94706.50;;;4.35;89.05
5691;BME280;2870;42.680;23.364;2023-03-16T08:26:22;94704.56;;;3.79;89.76
5691;BME280;2870;42.680;23.364;2023-03-16T08:28:51;94713.78;;;3.87;92.66
5691;BME280;2870;42.680;23.364;2023-03-16T08:31:19;94701.28;;;3.18;92.24
5691;BME280;2870;42.680;23.364;2023-03-16T08:33:48;94716.53;;;3.49;92.65
5691;BME280;2870;42.680;23.364;2023-03-16T08:36:16;94716.59;;;3.25;92.82
5691;BME280;2870;42.680;23.364;2023-03-16T08:38:45;94716.19;;;3.77;92.74
5691;BME280;2870;42.680;23.364;2023-03-16T08:41:12;94719.91;;;3.80;92.41
5691;BME280;2870;42.680;23.364;2023-03-16T08:43:41;94719.78;;;3.91;89.82
5691;BME280;2870;42.680;23.364;2023-03-16T08:46:09;94721.13;;;4.03;89.46
5691;BME280;2870;42.680;23.364;2023-03-16T08:48:37;94728.16;;;4.23;89.18
5691;BME280;2870;42.680;23.364;2023-03-16T08:51:06;94716.69;;;4.13;88.55
5691;BME280;2870;42.680;23.364;2023-03-16T08:53:33;94732.03;;;4.33;86.17
5691;BME280;2870;42.680;23.364;2023-03-16T08:56:02;94734.16;;;4.08;86.69
5691;BME280;2870;42.680;23.364;2023-03-16T08:58:29;94734.78;;;4.01;86.59
5691;BME280;2870;42.680;23.364;2023-03-16T09:00:57;94735.44;;;3.88;85.17
5691;BME280;2870;42.680;23.364;2023-03-16T09:03:24;94739.09;;;4.34;85.74
5691;BME280;2870;42.680;23.364;2023-03-16T09:05:51;94739.94;;;4.61;84.90
5691;BME280;2870;42.680;23.364;2023-03-16T09:08:19;94740.56;;;4.54;84.81
5691;BME280;2870;42.680;23.364;2023-03-16T09:10:47;94741.59;;;4.51;83.63
5691;BME280;2870;42.680;23.364;2023-03-16T09:13:15;94741.88;;;4.66;82.91
5691;BME280;2870;42.680;23.364;2023-03-16T09:15:44;94741.72;;;4.91;80.60
5691;BME280;2870;42.680;23.364;2023-03-16T09:18:10;94747.34;;;4.72;82.24
5691;BME280;2870;42.680;23.364;2023-03-16T09:20:38;94744.31;;;4.70;83.01
5691;BME280;2870;42.680;23.364;2023-03-16T09:23:05;94750.13;;;4.40;81.09
5691;BME280;2870;42.680;23.364;2023-03-16T09:25:33;94760.34;;;4.32;81.86
5691;BME280;2870;42.680;23.364;2023-03-16T09:27:59;94748.78;;;4.28;82.49
5691;BME280;2870;42.680;23.364;2023-03-16T09:30:26;94746.47;;;4.32;81.19
5691;BME280;2870;42.680;23.364;2023-03-16T09:32:53;94745.50;;;4.61;82.12
5691;BME280;2870;42.680;23.364;2023-03-16T09:35:21;94743.91;;;4.34;83.02
5691;BME280;2870;42.680;23.364;2023-03-16T09:37:48;94748.28;;;4.61;82.67
5691;BME280;2870;42.680;23.364;2023-03-16T09:40:22;94750.16;;;4.53;82.50
5691;BME280;2870;42.680;23.364;2023-03-16T09:43:01;94749.38;;;4.71;82.48
5691;BME280;2870;42.680;23.364;2023-03-16T09:45:36;94757.28;;;4.81;80.86
5691;BME280;2870;42.680;23.364;2023-03-16T09:48:09;94755.88;;;4.74;80.77
5691;BME280;2870;42.680;23.364;2023-03-16T09:50:39;94763.22;;;4.58;80.20
5691;BME280;2870;42.680;23.364;2023-03-16T09:53:13;94760.88;;;4.94;81.02
5691;BME280;2870;42.680;23.364;2023-03-16T09:55:45;94759.44;;;4.88;79.88
5691;BME280;2870;42.680;23.364;2023-03-16T09:58:18;94755.75;;;4.34;81.58
5691;BME280;2870;42.680;23.364;2023-03-16T10:00:53;94753.50;;;4.33;83.76
5691;BME280;2870;42.680;23.364;2023-03-16T10:03:31;94763.03;;;4.69;84.50
5691;BME280;2870;42.680;23.364;2023-03-16T10:06:04;94774.97;;;4.32;84.88
5691;BME280;2870;42.680;23.364;2023-03-16T10:08:38;94757.56;;;4.32;86.93
5691;BME280;2870;42.680;23.364;2023-03-16T10:11:18;94768.72;;;4.45;85.89
5691;BME280;2870;42.680;23.364;2023-03-16T10:13:52;94766.06;;;4.52;86.01
5691;BME280;2870;42.680;23.364;2023-03-16T10:16:24;94768.19;;;4.46;86.88
5691;BME280;2870;42.680;23.364;2023-03-16T10:18:58;94760.59;;;4.15;86.64
5691;BME280;2870;42.680;23.364;2023-03-16T10:21:29;94755.78;;;4.79;85.82
5691;BME280;2870;42.680;23.364;2023-03-16T10:23:58;94754.31;;;4.78;82.36
5691;BME280;2870;42.680;23.364;2023-03-16T10:26:34;94760.69;;;4.73;82.13
5691;BME280;2870;42.680;23.364;2023-03-16T10:29:08;94759.09;;;5.37;81.89
5691;BME280;2870;42.680;23.364;2023-03-16T10:31:39;94761.53;;;5.14;81.20
5691;BME280;2870;42.680;23.364;2023-03-16T10:34:08;94765.53;;;5.45;80.49
5691;BME280;2870;42.680;23.364;2023-03-16T10:36:37;94764.75;;;5.71;78.53
5691;BME280;2870;42.680;23.364;2023-03-16T10:39:07;94765.72;;;5.73;78.07
5691;BME280;2870;42.680;23.364;2023-03-16T10:41:37;94758.19;;;4.89;79.51
5691;BME280;2870;42.680;23.364;2023-03-16T10:44:10;94764.31;;;5.14;79.90
5691;BME280;2870;42.680;23.364;2023-03-16T10:46:38;94767.00;;;5.19;79.97
5691;BME280;2870;42.680;23.364;2023-03-16T10:49:19;94763.28;;;4.85;80.73
5691;BME280;2870;42.680;23.364;2023-03-16T10:51:46;94765.88;;;4.83;80.74
5691;BME280;2870;42.680;23.364;2023-03-16T10:54:22;94769.31;;;5.15;80.85
5691;BME280;2870;42.680;23.364;2023-03-16T10:56:50;94771.91;;;5.13;80.03
5691;BME280;2870;42.680;23.364;2023-03-16T10:59:27;94769.31;;;5.15;81.76
5691;BME280;2870;42.680;23.364;2023-03-16T11:01:56;94770.41;;;5.12;80.32
5691;BME280;2870;42.680;23.364;2023-03-16T11:04:24;94763.03;;;5.54;80.26
5691;BME280;2870;42.680;23.364;2023-03-16T11:06:53;94772.34;;;5.44;79.74
5691;BME280;2870;42.680;23.364;2023-03-16T11:09:23;94772.13;;;5.55;78.63
5691;BME280;2870;42.680;23.364;2023-03-16T11:11:52;94778.25;;;5.40;79.05
5691;BME280;2870;42.680;23.364;2023-03-16T11:14:21;94771.88;;;5.00;80.28
5691;BME280;2870;42.680;23.364;2023-03-16T11:16:57;94766.81;;;4.53;79.53
5691;BME280;2870;42.680;23.364;2023-03-16T11:19:29;94763.78;;;4.70;79.63
5691;BME280;2870;42.680;23.364;2023-03-16T11:22:01;94765.06;;;4.69;79.58
5691;BME280;2870;42.680;23.364;2023-03-16T11:24:38;94767.59;;;4.99;78.99
5691;BME280;2870;42.680;23.364;2023-03-16T11:27:19;94765.41;;;4.78;79.19
5691;BME280;2870;42.680;23.364;2023-03-16T11:30:01;94775.03;;;5.63;77.63
5691;BME280;2870;42.680;23.364;2023-03-16T11:32:33;94761.28;;;4.98;77.59
5691;BME280;2870;42.680;23.364;2023-03-16T11:35:05;94773.28;;;5.07;77.77
5691;BME280;2870;42.680;23.364;2023-03-16T11:37:49;94768.47;;;5.07;78.02
5691;BME280;2870;42.680;23.364;2023-03-16T11:40:35;94774.72;;;5.53;76.01
5691;BME280;2870;42.680;23.364;2023-03-16T11:43:16;94763.16;;;5.62;76.94
5691;BME280;2870;42.680;23.364;2023-03-16T11:45:52;94781.03;;;5.53;76.66
5691;BME280;2870;42.680;23.364;2023-03-16T11:48:36;94781.78;;;5.54;74.93
5691;BME280;2870;42.680;23.364;2023-03-16T11:51:12;94774.81;;;5.87;76.33
5691;BME280;2870;42.680;23.364;2023-03-16T11:53:49;94779.19;;;6.09;75.03
5691;BME280;2870;42.680;23.364;2023-03-16T11:56:30;94786.69;;;5.88;74.14
5691;BME280;2870;42.680;23.364;2023-03-16T11:59:07;94784.53;;;5.67;75.63
5691;BME280;2870;42.680;23.364;2023-03-16T12:01:49;94785.84;;;5.53;75.02
5691;BME280;2870;42.680;23.364;2023-03-16T12:04:34;94787.25;;;5.46;76.14
5691;BME280;2870;42.680;23.364;2023-03-16T12:07:34;94791.72;;;5.49;76.54
5691;BME280;2870;42.680;23.364;2023-03-16T12:10:11;94786.91;;;5.37;76.29
5691;BME280;2870;42.680;23.364;2023-03-16T12:12:52;94785.44;;;5.03;77.43
5691;BME280;2870;42.680;23.364;2023-03-16T12:15:31;94785.97;;;4.89;78.48
5691;BME280;2870;42.680;23.364;2023-03-16T12:18:03;94784.69;;;4.90;77.56
5691;BME280;2870;42.680;23.364;2023-03-16T12:20:39;94797.88;;;5.16;78.10
5691;BME280;2870;42.680;23.364;2023-03-16T12:23:12;94800.81;;;5.37;77.30
5691;BME280;2870;42.680;23.364;2023-03-16T12:25:42;94790.63;;;5.13;78.25
5691;BME280;2870;42.680;23.364;2023-03-16T12:28:19;94801.84;;;5.07;78.33
5691;BME280;2870;42.680;23.364;2023-03-16T12:30:54;94796.38;;;5.15;78.28
5691;BME280;2870;42.680;23.364;2023-03-16T12:33:34;94801.13;;;5.33;76.51
5691;BME280;2870;42.680;23.364;2023-03-16T12:36:22;94799.94;;;5.28;77.34
5691;BME280;2870;42.680;23.364;2023-03-16T12:39:01;94794.34;;;5.02;77.80
5691;BME280;2870;42.680;23.364;2023-03-16T12:41:35;94806.16;;;4.57;78.21
5691;BME280;2870;42.680;23.364;2023-03-16T12:44:12;94812.91;;;4.62;78.53
5691;BME280;2870;42.680;23.364;2023-03-16T12:46:49;94816.34;;;4.68;79.02
5691;BME280;2870;42.680;23.364;2023-03-16T12:49:21;94818.84;;;4.52;79.35
5691;BME280;2870;42.680;23.364;2023-03-16T12:51:59;94820.78;;;4.76;79.70
5691;BME280;2870;42.680;23.364;2023-03-16T12:54:26;94820.91;;;4.33;79.66
5691;BME280;2870;42.680;23.364;2023-03-16T12:56:59;94823.22;;;4.29;80.78
5691;BME280;2870;42.680;23.364;2023-03-16T12:59:36;94821.66;;;4.34;81.43
5691;BME280;2870;42.680;23.364;2023-03-16T13:02:10;94829.75;;;4.32;82.97
5691;BME280;2870;42.680;23.364;2023-03-16T13:04:42;94817.81;;;4.56;83.44
5691;BME280;2870;42.680;23.364;2023-03-16T13:07:16;94829.88;;;4.58;84.54
5691;BME280;2870;42.680;23.364;2023-03-16T13:09:46;94829.38;;;4.41;84.16
5691;BME280;2870;42.680;23.364;2023-03-16T13:12:22;94829.97;;;4.52;86.70
5691;BME280;2870;42.680;23.364;2023-03-16T13:14:50;94839.03;;;4.53;88.35
5691;BME280;2870;42.680;23.364;2023-03-16T13:17:24;94835.88;;;4.06;90.75
5691;BME280;2870;42.680;23.364;2023-03-16T13:22:44;94853.22;;;3.68;90.63
5691;BME280;2870;42.680;23.364;2023-03-16T13:25:16;94844.53;;;3.78;92.35
5691;BME280;2870;42.680;23.364;2023-03-16T13:27:47;94842.91;;;3.88;91.39
5691;BME280;2870;42.680;23.364;2023-03-16T13:30:18;94847.66;;;3.68;92.98
5691;BME280;2870;42.680;23.364;2023-03-16T13:32:47;94852.38;;;3.98;92.94
5691;BME280;2870;42.680;23.364;2023-03-16T13:35:15;94859.00;;;4.14;93.13